sensor_id;sensor_type;location;lat;lon;timestamp;temperature;humidity
6480;DHT22;71753;48.772;9.148;2023-07-29T00:01:12;17.23;90.10
6480;DHT22;71753;48.772;9.148;2023-07-29T00:03:39;17.24;90.03
6480;DHT22;71753;48.772;9.148;2023-07-29T00:06:06;17.24;90.34
6480;DHT22;71753;48.772;9.148;2023-07-29T00:08:34;17.30;89.61
6480;DHT22;71753;48.772;9.148;2023-07-29T00:11:01;17.29;89.86
6480;DHT22;71753;48.772;9.148;2023-07-29T00:13:27;17.33;89.82
6480;DHT22;71753;48.772;9.148;2023-07-29T00:15:54;17.39;89.28
6480;DHT22;71753;48.772;9.148;2023-07-29T00:18:21;17.49;88.68
6480;DHT22;71753;48.772;9.148;2023-07-29T00:20:48;17.56;88.24
6480;DHT22;71753;48.772;9.148;2023-07-29T00:23:16;17.54;88.67
6480;DHT22;71753;48.772;9.148;2023-07-29T00:25:45;17.51;88.96
6480;DHT22;71753;48.772;9.148;2023-07-29T00:28:12;17.54;88.39
6480;DHT22;71753;48.772;9.148;2023-07-29T00:30:39;17.59;88.64
6480;DHT22;71753;48.772;9.148;2023-07-29T00:33:05;17.51;88.89
6480;DHT22;71753;48.772;9.148;2023-07-29T00:35:32;17.52;88.68
6480;DHT22;71753;48.772;9.148;2023-07-29T00:37:59;17.54;88.26
6480;DHT22;71753;48.772;9.148;2023-07-29T00:40:28;17.58;88.50
6480;DHT22;71753;48.772;9.148;2023-07-29T00:42:56;17.62;88.17
6480;DHT22;71753;48.772;9.148;2023-07-29T00:45:23;17.70;87.10
6480;DHT22;71753;48.772;9.148;2023-07-29T00:47:51;17.69;87.64
6480;DHT22;71753;48.772;9.148;2023-07-29T00:50:18;17.72;87.57
6480;DHT22;71753;48.772;9.148;2023-07-29T00:52:44;17.70;87.32
6480;DHT22;71753;48.772;9.148;2023-07-29T00:55:11;17.75;86.95
6480;DHT22;71753;48.772;9.148;2023-07-29T00:57:38;17.75;87.25
6480;DHT22;71753;48.772;9.148;2023-07-29T01:00:08;17.75;87.37
6480;DHT22;71753;48.772;9.148;2023-07-29T01:02:35;17.73;87.25
6480;DHT22;71753;48.772;9.148;2023-07-29T01:05:02;17.64;88.06
6480;DHT22;71753;48.772;9.148;2023-07-29T01:07:34;17.64;87.86
6480;DHT22;71753;48.772;9.148;2023-07-29T01:10:15;17.54;88.41
6480;DHT22;71753;48.772;9.148;2023-07-29T01:12:48;17.52;88.77
6480;DHT22;71753;48.772;9.148;2023-07-29T01:15:22;17.59;87.86
6480;DHT22;71753;48.772;9.148;2023-07-29T01:17:54;17.58;88.20
6480;DHT22;71753;48.772;9.148;2023-07-29T01:20:24;17.55;88.12
6480;DHT22;71753;48.772;9.148;2023-07-29T01:22:51;17.53;88.26
6480;DHT22;71753;48.772;9.148;2023-07-29T01:25:19;17.48;88.39
6480;DHT22;71753;48.772;9.148;2023-07-29T01:27:48;17.47;88.70
6480;DHT22;71753;48.772;9.148;2023-07-29T01:30:16;17.47;88.79
6480;DHT22;71753;48.772;9.148;2023-07-29T01:32:48;17.47;88.54
6480;DHT22;71753;48.772;9.148;2023-07-29T01:35:24;17.49;88.68
6480;DHT22;71753;48.772;9.148;2023-07-29T01:37:55;17.50;88.51
6480;DHT22;71753;48.772;9.148;2023-07-29T01:40:25;17.45;88.86
6480;DHT22;71753;48.772;9.148;2023-07-29T01:42:53;17.47;88.45
6480;DHT22;71753;48.772;9.148;2023-07-29T01:45:23;17.44;88.67
6480;DHT22;71753;48.772;9.148;2023-07-29T01:47:49;17.39;88.92
6480;DHT22;71753;48.772;9.148;2023-07-29T01:50:16;17.41;88.85
6480;DHT22;71753;48.772;9.148;2023-07-29T01:52:43;17.39;88.81
6480;DHT22;71753;48.772;9.148;2023-07-29T01:55:10;17.37;89.12
6480;DHT22;71753;48.772;9.148;2023-07-29T01:57:38;17.34;89.21
6480;DHT22;71753;48.772;9.148;2023-07-29T02:00:06;17.35;89.26
6480;DHT22;71753;48.772;9.148;2023-07-29T02:02:33;17.28;89.58
6480;DHT22;71753;48.772;9.148;2023-07-29T02:05:00;17.26;89.69
6480;DHT22;71753;48.772;9.148;2023-07-29T02:07:26;17.22;89.92
6480;DHT22;71753;48.772;9.148;2023-07-29T02:09:53;17.18;90.18
6480;DHT22;71753;48.772;9.148;2023-07-29T02:12:19;17.25;89.24
6480;DHT22;71753;48.772;9.148;2023-07-29T02:14:47;17.28;89.31
6480;DHT22;71753;48.772;9.148;2023-07-29T02:17:14;17.23;89.16
6480;DHT22;71753;48.772;9.148;2023-07-29T02:19:41;17.14;89.61
6480;DHT22;71753;48.772;9.148;2023-07-29T02:22:07;17.13;89.81
6480;DHT22;71753;48.772;9.148;2023-07-29T02:24:34;17.16;89.44
6480;DHT22;71753;48.772;9.148;2023-07-29T02:27:01;17.20;89.14
6480;DHT22;71753;48.772;9.148;2023-07-29T02:29:27;17.28;88.69
6480;DHT22;71753;48.772;9.148;2023-07-29T02:31:57;17.25;88.86
6480;DHT22;71753;48.772;9.148;2023-07-29T02:34:23;17.23;89.09
6480;DHT22;71753;48.772;9.148;2023-07-29T02:36:50;17.28;88.60
6480;DHT22;71753;48.772;9.148;2023-07-29T02:39:17;17.30;88.70
6480;DHT22;71753;48.772;9.148;2023-07-29T02:41:43;17.32;88.31
6480;DHT22;71753;48.772;9.148;2023-07-29T02:44:10;17.29;88.64
6480;DHT22;71753;48.772;9.148;2023-07-29T02:46:37;17.28;88.90
6480;DHT22;71753;48.772;9.148;2023-07-29T02:49:05;17.32;88.22
6480;DHT22;71753;48.772;9.148;2023-07-29T02:51:31;17.33;88.19
6480;DHT22;71753;48.772;9.148;2023-07-29T02:53:58;17.34;88.33
6480;DHT22;71753;48.772;9.148;2023-07-29T02:56:25;17.35;88.31
6480;DHT22;71753;48.772;9.148;2023-07-29T02:58:51;17.30;88.59
6480;DHT22;71753;48.772;9.148;2023-07-29T03:01:18;17.34;87.94
6480;DHT22;71753;48.772;9.148;2023-07-29T03:03:45;17.32;88.25
6480;DHT22;71753;48.772;9.148;2023-07-29T03:06:13;17.26;88.44
6480;DHT22;71753;48.772;9.148;2023-07-29T03:08:40;17.32;88.12
6480;DHT22;71753;48.772;9.148;2023-07-29T03:11:09;17.34;87.70
6480;DHT22;71753;48.772;9.148;2023-07-29T03:13:35;17.31;87.87
6480;DHT22;71753;48.772;9.148;2023-07-29T03:16:06;17.34;87.56
6480;DHT22;71753;48.772;9.148;2023-07-29T03:18:32;17.32;87.54
6480;DHT22;71753;48.772;9.148;2023-07-29T03:20:59;17.35;87.35
6480;DHT22;71753;48.772;9.148;2023-07-29T03:23:28;17.35;87.25
6480;DHT22;71753;48.772;9.148;2023-07-29T03:25:55;17.36;87.29
6480;DHT22;71753;48.772;9.148;2023-07-29T03:28:23;17.40;86.85
6480;DHT22;71753;48.772;9.148;2023-07-29T03:30:50;17.41;86.63
6480;DHT22;71753;48.772;9.148;2023-07-29T03:33:17;17.37;87.08
6480;DHT22;71753;48.772;9.148;2023-07-29T03:35:43;17.44;86.54
6480;DHT22;71753;48.772;9.148;2023-07-29T03:38:10;17.45;86.72
6480;DHT22;71753;48.772;9.148;2023-07-29T03:40:38;17.43;86.95
6480;DHT22;71753;48.772;9.148;2023-07-29T03:43:05;17.46;86.25
6480;DHT22;71753;48.772;9.148;2023-07-29T03:45:32;17.36;87.22
6480;DHT22;71753;48.772;9.148;2023-07-29T03:47:59;17.35;87.41
6480;DHT22;71753;48.772;9.148;2023-07-29T03:50:26;17.32;87.87
6480;DHT22;71753;48.772;9.148;2023-07-29T03:52:52;17.33;87.45
6480;DHT22;71753;48.772;9.148;2023-07-29T03:55:19;17.33;87.61
6480;DHT22;71753;48.772;9.148;2023-07-29T03:57:47;17.33;87.73
6480;DHT22;71753;48.772;9.148;2023-07-29T04:00:14;17.34;87.77
6480;DHT22;71753;48.772;9.148;2023-07-29T04:02:41;17.35;88.06
6480;DHT22;71753;48.772;9.148;2023-07-29T04:05:08;17.24;89.20
6480;DHT22;71753;48.772;9.148;2023-07-29T04:07:35;17.09;90.78
6480;DHT22;71753;48.772;9.148;2023-07-29T04:10:02;17.10;90.63
6480;DHT22;71753;48.772;9.148;2023-07-29T04:12:29;17.17;89.95
6480;DHT22;71753;48.772;9.148;2023-07-29T04:14:57;17.14;89.80
6480;DHT22;71753;48.772;9.148;2023-07-29T04:17:24;17.08;90.42
6480;DHT22;71753;48.772;9.148;2023-07-29T04:19:50;17.14;90.02
6480;DHT22;71753;48.772;9.148;2023-07-29T04:22:17;17.19;89.47
6480;DHT22;71753;48.772;9.148;2023-07-29T04:24:43;17.31;88.91
6480;DHT22;71753;48.772;9.148;2023-07-29T04:27:10;17.44;87.72
6480;DHT22;71753;48.772;9.148;2023-07-29T04:29:37;17.46;88.06
6480;DHT22;71753;48.772;9.148;2023-07-29T04:32:05;17.45;87.95
6480;DHT22;71753;48.772;9.148;2023-07-29T04:34:32;17.44;88.57
6480;DHT22;71753;48.772;9.148;2023-07-29T04:36:59;17.35;89.50
6480;DHT22;71753;48.772;9.148;2023-07-29T04:39:26;17.36;89.29
6480;DHT22;71753;48.772;9.148;2023-07-29T04:41:53;17.37;89.39
6480;DHT22;71753;48.772;9.148;2023-07-29T04:44:19;17.37;89.76
6480;DHT22;71753;48.772;9.148;2023-07-29T04:46:46;17.32;90.92
6480;DHT22;71753;48.772;9.148;2023-07-29T04:49:14;17.33;90.30
6480;DHT22;71753;48.772;9.148;2023-07-29T04:51:41;17.33;91.21
6480;DHT22;71753;48.772;9.148;2023-07-29T04:54:07;17.31;91.53
6480;DHT22;71753;48.772;9.148;2023-07-29T04:56:34;17.35;91.34
6480;DHT22;71753;48.772;9.148;2023-07-29T04:59:00;17.35;91.23
6480;DHT22;71753;48.772;9.148;2023-07-29T05:01:27;17.33;91.68
6480;DHT22;71753;48.772;9.148;2023-07-29T05:03:54;17.29;91.76
6480;DHT22;71753;48.772;9.148;2023-07-29T05:06:22;17.35;91.37
6480;DHT22;71753;48.772;9.148;2023-07-29T05:08:48;17.30;91.71
6480;DHT22;71753;48.772;9.148;2023-07-29T05:11:15;17.34;91.46
6480;DHT22;71753;48.772;9.148;2023-07-29T05:13:42;17.37;91.56
6480;DHT22;71753;48.772;9.148;2023-07-29T05:16:09;17.32;92.14
6480;DHT22;71753;48.772;9.148;2023-07-29T05:18:36;17.37;91.60
6480;DHT22;71753;48.772;9.148;2023-07-29T05:21:02;17.41;90.84
6480;DHT22;71753;48.772;9.148;2023-07-29T05:23:30;17.43;90.59
6480;DHT22;71753;48.772;9.148;2023-07-29T05:25:57;17.41;90.59
6480;DHT22;71753;48.772;9.148;2023-07-29T05:28:24;17.41;90.98
6480;DHT22;71753;48.772;9.148;2023-07-29T05:30:51;17.46;90.42
6480;DHT22;71753;48.772;9.148;2023-07-29T05:33:18;17.52;90.34
6480;DHT22;71753;48.772;9.148;2023-07-29T05:35:45;17.55;90.45
6480;DHT22;71753;48.772;9.148;2023-07-29T05:38:12;17.68;89.90
6480;DHT22;71753;48.772;9.148;2023-07-29T05:40:40;17.76;89.09
6480;DHT22;71753;48.772;9.148;2023-07-29T05:43:07;17.83;88.77
6480;DHT22;71753;48.772;9.148;2023-07-29T05:45:33;17.90;89.25
6480;DHT22;71753;48.772;9.148;2023-07-29T05:48:00;17.98;88.15
6480;DHT22;71753;48.772;9.148;2023-07-29T05:50:27;17.98;89.00
6480;DHT22;71753;48.772;9.148;2023-07-29T05:52:53;18.10;88.36
6480;DHT22;71753;48.772;9.148;2023-07-29T05:55:20;18.23;87.46
6480;DHT22;71753;48.772;9.148;2023-07-29T05:57:48;18.19;88.47
6480;DHT22;71753;48.772;9.148;2023-07-29T06:00:15;18.17;88.43
6480;DHT22;71753;48.772;9.148;2023-07-29T06:02:42;18.23;88.48
6480;DHT22;71753;48.772;9.148;2023-07-29T06:05:08;18.46;87.36
6480;DHT22;71753;48.772;9.148;2023-07-29T06:07:35;18.53;87.87
6480;DHT22;71753;48.772;9.148;2023-07-29T06:10:02;18.96;85.43
6480;DHT22;71753;48.772;9.148;2023-07-29T06:12:28;18.99;85.94
6480;DHT22;71753;48.772;9.148;2023-07-29T06:14:56;18.92;86.38
6480;DHT22;71753;48.772;9.148;2023-07-29T06:17:23;18.88;85.87
6480;DHT22;71753;48.772;9.148;2023-07-29T06:19:50;18.96;84.64
6480;DHT22;71753;48.772;9.148;2023-07-29T06:22:17;19.06;85.12
6480;DHT22;71753;48.772;9.148;2023-07-29T06:24:43;19.44;85.38
6480;DHT22;71753;48.772;9.148;2023-07-29T06:27:10;19.48;85.21
6480;DHT22;71753;48.772;9.148;2023-07-29T06:29:37;19.41;84.40
6480;DHT22;71753;48.772;9.148;2023-07-29T06:32:05;19.45;84.35
6480;DHT22;71753;48.772;9.148;2023-07-29T06:34:32;19.25;86.39
6480;DHT22;71753;48.772;9.148;2023-07-29T06:36:59;19.16;85.32
6480;DHT22;71753;48.772;9.148;2023-07-29T06:39:25;19.08;85.91
6480;DHT22;71753;48.772;9.148;2023-07-29T06:41:52;19.08;86.43
6480;DHT22;71753;48.772;9.148;2023-07-29T06:44:19;19.16;85.93
6480;DHT22;71753;48.772;9.148;2023-07-29T06:46:46;19.31;84.30
6480;DHT22;71753;48.772;9.148;2023-07-29T06:49:14;19.37;83.85
6480;DHT22;71753;48.772;9.148;2023-07-29T06:51:40;19.30;84.49
6480;DHT22;71753;48.772;9.148;2023-07-29T06:54:07;19.26;84.74
6480;DHT22;71753;48.772;9.148;2023-07-29T06:56:34;19.09;85.32
6480;DHT22;71753;48.772;9.148;2023-07-29T06:59:00;19.06;84.84
6480;DHT22;71753;48.772;9.148;2023-07-29T07:01:27;18.94;86.15
6480;DHT22;71753;48.772;9.148;2023-07-29T07:03:54;18.89;85.20
6480;DHT22;71753;48.772;9.148;2023-07-29T07:06:25;18.74;86.20
6480;DHT22;71753;48.772;9.148;2023-07-29T07:08:51;18.59;88.42
6480;DHT22;71753;48.772;9.148;2023-07-29T07:11:18;18.59;88.03
6480;DHT22;71753;48.772;9.148;2023-07-29T07:13:45;18.58;87.32
6480;DHT22;71753;48.772;9.148;2023-07-29T07:16:12;18.56;89.02
6480;DHT22;71753;48.772;9.148;2023-07-29T07:18:38;18.44;89.84
6480;DHT22;71753;48.772;9.148;2023-07-29T07:21:05;18.58;88.79
6480;DHT22;71753;48.772;9.148;2023-07-29T07:23:33;18.62;88.56
6480;DHT22;71753;48.772;9.148;2023-07-29T07:26:00;18.65;87.64
6480;DHT22;71753;48.772;9.148;2023-07-29T07:28:26;18.58;89.12
6480;DHT22;71753;48.772;9.148;2023-07-29T07:30:53;18.69;86.97
6480;DHT22;71753;48.772;9.148;2023-07-29T07:33:21;18.72;86.87
6480;DHT22;71753;48.772;9.148;2023-07-29T07:35:48;18.77;86.93
6480;DHT22;71753;48.772;9.148;2023-07-29T07:38:14;18.83;86.09
6480;DHT22;71753;48.772;9.148;2023-07-29T07:40:42;18.88;85.55
6480;DHT22;71753;48.772;9.148;2023-07-29T07:43:18;18.85;87.30
6480;DHT22;71753;48.772;9.148;2023-07-29T07:45:44;18.80;86.52
6480;DHT22;71753;48.772;9.148;2023-07-29T07:48:11;18.81;87.73
6480;DHT22;71753;48.772;9.148;2023-07-29T07:50:38;18.80;87.03
6480;DHT22;71753;48.772;9.148;2023-07-29T07:53:05;18.80;86.39
6480;DHT22;71753;48.772;9.148;2023-07-29T07:55:32;18.79;87.36
6480;DHT22;71753;48.772;9.148;2023-07-29T07:58:00;18.77;88.19
6480;DHT22;71753;48.772;9.148;2023-07-29T08:00:26;18.81;86.77
6480;DHT22;71753;48.772;9.148;2023-07-29T08:02:53;18.94;87.51
6480;DHT22;71753;48.772;9.148;2023-07-29T08:05:19;19.16;84.50
6480;DHT22;71753;48.772;9.148;2023-07-29T08:07:46;19.14;86.22
6480;DHT22;71753;48.772;9.148;2023-07-29T08:10:13;19.10;86.53
6480;DHT22;71753;48.772;9.148;2023-07-29T08:12:39;19.16;87.25
6480;DHT22;71753;48.772;9.148;2023-07-29T08:15:08;19.25;86.64
6480;DHT22;71753;48.772;9.148;2023-07-29T08:17:35;19.48;86.21
6480;DHT22;71753;48.772;9.148;2023-07-29T08:20:02;19.55;84.71
6480;DHT22;71753;48.772;9.148;2023-07-29T08:22:29;19.66;83.53
6480;DHT22;71753;48.772;9.148;2023-07-29T08:24:55;19.77;84.21
6480;DHT22;71753;48.772;9.148;2023-07-29T08:27:22;19.83;82.90
6480;DHT22;71753;48.772;9.148;2023-07-29T08:29:48;19.82;84.87
6480;DHT22;71753;48.772;9.148;2023-07-29T08:32:16;19.88;84.30
6480;DHT22;71753;48.772;9.148;2023-07-29T08:34:43;19.96;83.42
6480;DHT22;71753;48.772;9.148;2023-07-29T08:37:10;19.92;82.53
6480;DHT22;71753;48.772;9.148;2023-07-29T08:39:37;19.99;83.78
6480;DHT22;71753;48.772;9.148;2023-07-29T08:42:04;20.01;84.65
6480;DHT22;71753;48.772;9.148;2023-07-29T08:44:40;20.14;83.12
6480;DHT22;71753;48.772;9.148;2023-07-29T08:47:07;20.35;84.10
6480;DHT22;71753;48.772;9.148;2023-07-29T08:49:36;20.47;82.73
6480;DHT22;71753;48.772;9.148;2023-07-29T08:52:04;20.50;81.64
6480;DHT22;71753;48.772;9.148;2023-07-29T08:54:31;20.70;81.00
6480;DHT22;71753;48.772;9.148;2023-07-29T08:56:58;21.25;80.07
6480;DHT22;71753;48.772;9.148;2023-07-29T08:59:25;22.28;76.02
6480;DHT22;71753;48.772;9.148;2023-07-29T09:01:53;22.43;73.70
6480;DHT22;71753;48.772;9.148;2023-07-29T09:04:22;22.12;74.84
6480;DHT22;71753;48.772;9.148;2023-07-29T09:06:51;22.02;76.68
6480;DHT22;71753;48.772;9.148;2023-07-29T09:09:20;21.98;76.57
6480;DHT22;71753;48.772;9.148;2023-07-29T09:11:47;21.87;75.88
6480;DHT22;71753;48.772;9.148;2023-07-29T09:14:14;21.88;75.03
6480;DHT22;71753;48.772;9.148;2023-07-29T09:16:41;22.31;74.73
6480;DHT22;71753;48.772;9.148;2023-07-29T09:19:08;21.83;75.58
6480;DHT22;71753;48.772;9.148;2023-07-29T09:21:38;22.11;74.33
6480;DHT22;71753;48.772;9.148;2023-07-29T09:24:07;21.99;74.87
6480;DHT22;71753;48.772;9.148;2023-07-29T09:26:34;22.39;74.57
6480;DHT22;71753;48.772;9.148;2023-07-29T09:29:01;22.61;73.76
6480;DHT22;71753;48.772;9.148;2023-07-29T09:31:28;22.42;71.41
6480;DHT22;71753;48.772;9.148;2023-07-29T09:33:56;22.62;71.51
6480;DHT22;71753;48.772;9.148;2023-07-29T09:36:24;22.73;71.45
6480;DHT22;71753;48.772;9.148;2023-07-29T09:38:52;22.66;70.74
6480;DHT22;71753;48.772;9.148;2023-07-29T09:41:23;22.82;71.28
6480;DHT22;71753;48.772;9.148;2023-07-29T09:43:55;22.56;71.26
6480;DHT22;71753;48.772;9.148;2023-07-29T09:46:23;22.49;72.44
6480;DHT22;71753;48.772;9.148;2023-07-29T09:48:53;22.84;71.58
6480;DHT22;71753;48.772;9.148;2023-07-29T09:51:19;23.15;69.09
6480;DHT22;71753;48.772;9.148;2023-07-29T09:53:47;22.96;68.13
6480;DHT22;71753;48.772;9.148;2023-07-29T09:56:15;22.94;66.81
6480;DHT22;71753;48.772;9.148;2023-07-29T09:58:45;22.97;69.57
6480;DHT22;71753;48.772;9.148;2023-07-29T10:01:12;23.28;68.10
6480;DHT22;71753;48.772;9.148;2023-07-29T10:03:39;24.11;65.59
6480;DHT22;71753;48.772;9.148;2023-07-29T10:06:07;24.11;63.43
6480;DHT22;71753;48.772;9.148;2023-07-29T10:08:34;24.09;62.87
6480;DHT22;71753;48.772;9.148;2023-07-29T10:11:05;23.80;63.21
6480;DHT22;71753;48.772;9.148;2023-07-29T10:13:33;24.14;64.39
6480;DHT22;71753;48.772;9.148;2023-07-29T10:16:02;24.15;62.90
6480;DHT22;71753;48.772;9.148;2023-07-29T10:18:30;24.12;64.25
6480;DHT22;71753;48.772;9.148;2023-07-29T10:20:58;23.83;64.57
6480;DHT22;71753;48.772;9.148;2023-07-29T10:23:27;23.49;64.99
6480;DHT22;71753;48.772;9.148;2023-07-29T10:25:59;23.92;64.59
6480;DHT22;71753;48.772;9.148;2023-07-29T10:28:29;23.68;62.96
6480;DHT22;71753;48.772;9.148;2023-07-29T10:30:56;23.45;66.16
6480;DHT22;71753;48.772;9.148;2023-07-29T10:33:25;23.66;64.77
6480;DHT22;71753;48.772;9.148;2023-07-29T10:35:52;23.47;68.22
6480;DHT22;71753;48.772;9.148;2023-07-29T10:38:21;23.61;65.87
6480;DHT22;71753;48.772;9.148;2023-07-29T10:40:50;23.68;67.81
6480;DHT22;71753;48.772;9.148;2023-07-29T10:43:19;23.71;69.04
6480;DHT22;71753;48.772;9.148;2023-07-29T10:45:50;24.10;67.69
6480;DHT22;71753;48.772;9.148;2023-07-29T10:48:40;23.65;70.23
6480;DHT22;71753;48.772;9.148;2023-07-29T10:51:25;23.24;68.52
6480;DHT22;71753;48.772;9.148;2023-07-29T10:53:53;23.64;68.08
6480;DHT22;71753;48.772;9.148;2023-07-29T10:56:26;24.35;66.72
6480;DHT22;71753;48.772;9.148;2023-07-29T10:58:55;24.65;63.11
6480;DHT22;71753;48.772;9.148;2023-07-29T11:01:27;24.11;63.08
6480;DHT22;71753;48.772;9.148;2023-07-29T11:04:22;24.04;65.66
6480;DHT22;71753;48.772;9.148;2023-07-29T11:07:20;24.29;62.65
6480;DHT22;71753;48.772;9.148;2023-07-29T11:10:02;23.71;62.68
6480;DHT22;71753;48.772;9.148;2023-07-29T11:12:40;23.57;63.76
6480;DHT22;71753;48.772;9.148;2023-07-29T11:15:23;23.76;63.73
6480;DHT22;71753;48.772;9.148;2023-07-29T11:17:51;24.09;63.08
6480;DHT22;71753;48.772;9.148;2023-07-29T11:20:21;24.49;61.32
6480;DHT22;71753;48.772;9.148;2023-07-29T11:22:48;25.09;60.64
6480;DHT22;71753;48.772;9.148;2023-07-29T11:25:16;24.78;63.08
6480;DHT22;71753;48.772;9.148;2023-07-29T11:27:44;25.18;60.69
6480;DHT22;71753;48.772;9.148;2023-07-29T11:30:12;24.87;59.70
6480;DHT22;71753;48.772;9.148;2023-07-29T11:32:40;24.31;61.79
6480;DHT22;71753;48.772;9.148;2023-07-29T11:35:09;24.19;60.89
6480;DHT22;71753;48.772;9.148;2023-07-29T11:37:38;24.43;59.81
6480;DHT22;71753;48.772;9.148;2023-07-29T11:40:06;24.60;60.19
6480;DHT22;71753;48.772;9.148;2023-07-29T11:42:35;24.79;59.34
6480;DHT22;71753;48.772;9.148;2023-07-29T11:45:02;25.18;59.19
6480;DHT22;71753;48.772;9.148;2023-07-29T11:47:29;25.68;59.25
6480;DHT22;71753;48.772;9.148;2023-07-29T11:49:58;25.93;56.44
6480;DHT22;71753;48.772;9.148;2023-07-29T11:52:25;26.33;54.29
6480;DHT22;71753;48.772;9.148;2023-07-29T11:54:54;25.52;57.06
6480;DHT22;71753;48.772;9.148;2023-07-29T11:57:21;26.08;55.29
6480;DHT22;71753;48.772;9.148;2023-07-29T11:59:48;26.57;55.66
6480;DHT22;71753;48.772;9.148;2023-07-29T12:02:16;26.58;54.38
6480;DHT22;71753;48.772;9.148;2023-07-29T12:04:44;26.31;54.33
6480;DHT22;71753;48.772;9.148;2023-07-29T12:07:13;26.58;54.22
6480;DHT22;71753;48.772;9.148;2023-07-29T12:09:40;26.72;52.85
6480;DHT22;71753;48.772;9.148;2023-07-29T12:12:09;26.61;54.68
6480;DHT22;71753;48.772;9.148;2023-07-29T12:14:36;26.48;54.05
6480;DHT22;71753;48.772;9.148;2023-07-29T12:17:04;26.51;54.62
6480;DHT22;71753;48.772;9.148;2023-07-29T12:19:32;26.11;51.94
6480;DHT22;71753;48.772;9.148;2023-07-29T12:21:59;25.77;53.87
6480;DHT22;71753;48.772;9.148;2023-07-29T12:24:26;25.83;52.82
6480;DHT22;71753;48.772;9.148;2023-07-29T12:26:53;26.35;51.85
6480;DHT22;71753;48.772;9.148;2023-07-29T12:29:21;26.73;53.16
6480;DHT22;71753;48.772;9.148;2023-07-29T12:31:48;26.53;52.61
6480;DHT22;71753;48.772;9.148;2023-07-29T12:34:18;26.25;49.98
6480;DHT22;71753;48.772;9.148;2023-07-29T12:36:46;26.68;49.24
6480;DHT22;71753;48.772;9.148;2023-07-29T12:39:18;26.58;47.67
6480;DHT22;71753;48.772;9.148;2023-07-29T12:41:44;26.25;49.77
6480;DHT22;71753;48.772;9.148;2023-07-29T12:44:11;26.17;47.25
6480;DHT22;71753;48.772;9.148;2023-07-29T12:46:39;26.25;48.16
6480;DHT22;71753;48.772;9.148;2023-07-29T12:49:06;26.17;49.19
6480;DHT22;71753;48.772;9.148;2023-07-29T12:51:33;26.35;48.24
6480;DHT22;71753;48.772;9.148;2023-07-29T12:54:00;26.03;48.08
6480;DHT22;71753;48.772;9.148;2023-07-29T12:56:26;25.68;50.73
6480;DHT22;71753;48.772;9.148;2023-07-29T12:58:53;25.72;49.29
6480;DHT22;71753;48.772;9.148;2023-07-29T13:01:20;25.92;49.52
6480;DHT22;71753;48.772;9.148;2023-07-29T13:03:48;26.22;47.52
6480;DHT22;71753;48.772;9.148;2023-07-29T13:06:15;26.53;47.83
6480;DHT22;71753;48.772;9.148;2023-07-29T13:08:42;25.92;46.31
6480;DHT22;71753;48.772;9.148;2023-07-29T13:11:09;26.35;48.48
6480;DHT22;71753;48.772;9.148;2023-07-29T13:13:36;26.38;46.97
6480;DHT22;71753;48.772;9.148;2023-07-29T13:16:02;26.07;48.65
6480;DHT22;71753;48.772;9.148;2023-07-29T13:18:29;26.34;47.88
6480;DHT22;71753;48.772;9.148;2023-07-29T13:20:57;26.36;48.34
6480;DHT22;71753;48.772;9.148;2023-07-29T13:23:25;26.27;46.83
6480;DHT22;71753;48.772;9.148;2023-07-29T13:25:53;26.61;46.75
6480;DHT22;71753;48.772;9.148;2023-07-29T13:28:20;26.28;46.94
6480;DHT22;71753;48.772;9.148;2023-07-29T13:30:46;26.40;46.55
6480;DHT22;71753;48.772;9.148;2023-07-29T13:33:13;26.05;46.92
6480;DHT22;71753;48.772;9.148;2023-07-29T13:35:40;25.84;48.28
6480;DHT22;71753;48.772;9.148;2023-07-29T13:38:08;26.20;47.77
6480;DHT22;71753;48.772;9.148;2023-07-29T13:40:34;26.49;48.30
6480;DHT22;71753;48.772;9.148;2023-07-29T13:43:01;26.53;46.60
6480;DHT22;71753;48.772;9.148;2023-07-29T13:45:28;26.36;46.70
6480;DHT22;71753;48.772;9.148;2023-07-29T13:47:55;25.74;47.85
6480;DHT22;71753;48.772;9.148;2023-07-29T13:50:21;25.91;48.70
6480;DHT22;71753;48.772;9.148;2023-07-29T13:52:48;25.89;47.44
6480;DHT22;71753;48.772;9.148;2023-07-29T13:55:16;25.82;49.37
6480;DHT22;71753;48.772;9.148;2023-07-29T13:57:42;25.59;48.22
6480;DHT22;71753;48.772;9.148;2023-07-29T14:00:10;25.72;49.46
6480;DHT22;71753;48.772;9.148;2023-07-29T14:02:37;25.92;49.37
6480;DHT22;71753;48.772;9.148;2023-07-29T14:05:04;26.49;47.58
6480;DHT22;71753;48.772;9.148;2023-07-29T14:07:32;26.79;45.75
6480;DHT22;71753;48.772;9.148;2023-07-29T14:09:59;26.63;47.22
6480;DHT22;71753;48.772;9.148;2023-07-29T14:12:27;26.73;45.63
6480;DHT22;71753;48.772;9.148;2023-07-29T14:14:53;26.38;46.70
6480;DHT22;71753;48.772;9.148;2023-07-29T14:17:20;26.28;47.58
6480;DHT22;71753;48.772;9.148;2023-07-29T14:19:46;26.40;47.43
6480;DHT22;71753;48.772;9.148;2023-07-29T14:22:13;26.63;46.14
6480;DHT22;71753;48.772;9.148;2023-07-29T14:24:40;26.99;47.76
6480;DHT22;71753;48.772;9.148;2023-07-29T14:27:06;26.78;46.13
6480;DHT22;71753;48.772;9.148;2023-07-29T14:29:34;26.06;47.68
6480;DHT22;71753;48.772;9.148;2023-07-29T14:32:01;26.03;47.52
6480;DHT22;71753;48.772;9.148;2023-07-29T14:34:28;25.83;49.12
6480;DHT22;71753;48.772;9.148;2023-07-29T14:36:55;25.96;49.43
6480;DHT22;71753;48.772;9.148;2023-07-29T14:39:22;25.99;50.88
6480;DHT22;71753;48.772;9.148;2023-07-29T14:41:48;25.86;50.34
6480;DHT22;71753;48.772;9.148;2023-07-29T14:44:15;25.45;51.47
6480;DHT22;71753;48.772;9.148;2023-07-29T14:46:43;25.10;52.77
6480;DHT22;71753;48.772;9.148;2023-07-29T14:49:10;25.02;51.96
6480;DHT22;71753;48.772;9.148;2023-07-29T14:51:36;25.08;51.46
6480;DHT22;71753;48.772;9.148;2023-07-29T14:54:03;25.40;50.36
6480;DHT22;71753;48.772;9.148;2023-07-29T14:56:30;25.23;51.24
6480;DHT22;71753;48.772;9.148;2023-07-29T14:58:57;25.14;50.24
6480;DHT22;71753;48.772;9.148;2023-07-29T15:01:23;25.28;51.98
6480;DHT22;71753;48.772;9.148;2023-07-29T15:03:51;25.62;52.20
6480;DHT22;71753;48.772;9.148;2023-07-29T15:06:18;25.86;52.41
6480;DHT22;71753;48.772;9.148;2023-07-29T15:08:45;25.68;50.72
6480;DHT22;71753;48.772;9.148;2023-07-29T15:11:11;25.57;51.20
6480;DHT22;71753;48.772;9.148;2023-07-29T15:13:38;25.88;50.80
6480;DHT22;71753;48.772;9.148;2023-07-29T15:16:05;25.91;51.44
6480;DHT22;71753;48.772;9.148;2023-07-29T15:18:31;25.58;51.27
6480;DHT22;71753;48.772;9.148;2023-07-29T15:21:00;25.67;50.92
6480;DHT22;71753;48.772;9.148;2023-07-29T15:23:27;25.90;52.07
6480;DHT22;71753;48.772;9.148;2023-07-29T15:25:54;26.12;49.73
6480;DHT22;71753;48.772;9.148;2023-07-29T15:28:21;26.30;49.85
6480;DHT22;71753;48.772;9.148;2023-07-29T15:30:48;26.55;48.35
6480;DHT22;71753;48.772;9.148;2023-07-29T15:33:15;26.62;51.43
6480;DHT22;71753;48.772;9.148;2023-07-29T15:35:41;26.90;46.89
6480;DHT22;71753;48.772;9.148;2023-07-29T15:38:09;27.30;47.72
6480;DHT22;71753;48.772;9.148;2023-07-29T15:40:38;27.46;46.05
6480;DHT22;71753;48.772;9.148;2023-07-29T15:43:04;27.35;46.12
6480;DHT22;71753;48.772;9.148;2023-07-29T15:45:31;27.45;46.76
6480;DHT22;71753;48.772;9.148;2023-07-29T15:47:58;26.43;49.53